createdAt,value
2024-03-01T00:02:33.551Z,99964.28
2024-03-01T00:05:36.593Z,99965.56
2024-03-01T00:08:39.730Z,99964.00
2024-03-01T00:11:42.831Z,99966.22
2024-03-01T00:14:46.088Z,99969.06
2024-03-01T00:17:49.199Z,99963.00
2024-03-01T00:20:52.242Z,99959.44
2024-03-01T00:23:55.337Z,99970.22
2024-03-01T00:26:58.642Z,99959.78
2024-03-01T00:30:01.864Z,99958.91
2024-03-01T00:33:05.404Z,99951.16
2024-03-01T00:36:09.369Z,99948.41
2024-03-01T00:39:13.126Z,99945.56
2024-03-01T00:42:16.345Z,99949.81
2024-03-01T00:45:19.417Z,99938.66
2024-03-01T00:48:22.813Z,99928.84
2024-03-01T00:51:25.902Z,99925.09
2024-03-01T00:54:28.736Z,99911.25
2024-03-01T00:57:32.444Z,99912.66
2024-03-01T01:00:36.247Z,99910.41
2024-03-01T01:03:39.931Z,99899.34
2024-03-01T01:06:43.024Z,99901.34
2024-03-01T01:09:45.755Z,99892.78
2024-03-01T01:12:48.803Z,99897.38
2024-03-01T01:15:51.884Z,99896.56
2024-03-01T01:18:55.205Z,99889.81
2024-03-01T01:21:58.283Z,99877.84
2024-03-01T01:25:01.917Z,99870.50
2024-03-01T01:28:05.279Z,99868.09
2024-03-01T01:31:09.551Z,99858.38
2024-03-01T01:34:12.732Z,99857.44
2024-03-01T01:37:16.230Z,99856.13
2024-03-01T01:40:19.423Z,99857.44
2024-03-01T01:43:22.546Z,99860.16
2024-03-01T01:46:25.406Z,99858.91
2024-03-01T01:49:30.133Z,99845.34
2024-03-01T01:52:33.440Z,99851.06
2024-03-01T01:55:37.709Z,99844.88
2024-03-01T01:58:42.577Z,99844.09
2024-03-01T02:01:46.081Z,99845.56
2024-03-01T02:04:49.851Z,99843.69
2024-03-01T02:07:53.367Z,99837.22
2024-03-01T02:10:56.801Z,99834.78
2024-03-01T02:13:59.967Z,99837.50
2024-03-01T02:17:03.186Z,99838.00
2024-03-01T02:20:08.055Z,99832.91
2024-03-01T02:23:22.742Z,99835.97
2024-03-01T02:26:25.920Z,99843.63
2024-03-01T02:29:28.972Z,99847.44
2024-03-01T02:32:31.954Z,99845.75
2024-03-01T02:35:35.089Z,99840.22
2024-03-01T02:38:38.196Z,99830.81
2024-03-01T02:41:41.380Z,99821.13
2024-03-01T02:44:44.238Z,99814.75
2024-03-01T02:47:47.153Z,99806.25
2024-03-01T02:50:50.180Z,99798.53
2024-03-01T02:53:53.926Z,99800.41
2024-03-01T02:56:56.742Z,99795.41
2024-03-01T03:00:00.114Z,99789.69
2024-03-01T03:03:02.905Z,99787.34
2024-03-01T03:06:06.023Z,99777.53
2024-03-01T03:09:10.880Z,99773.97
2024-03-01T03:12:14.068Z,99774.06
2024-03-01T03:15:17.868Z,99774.31
2024-03-01T03:18:21.277Z,99769.38
2024-03-01T03:21:24.777Z,99768.69
2024-03-01T03:24:27.846Z,99765.91
2024-03-01T03:27:30.902Z,99767.03
2024-03-01T03:30:33.860Z,99759.84
2024-03-01T03:33:37.193Z,99753.31
2024-03-01T03:36:40.363Z,99771.13
2024-03-01T03:39:43.518Z,99768.81
2024-03-01T03:42:46.590Z,99760.97
2024-03-01T03:45:49.707Z,99773.84
2024-03-01T03:48:52.902Z,99763.22
2024-03-01T03:51:56.034Z,99767.38
2024-03-01T03:54:58.886Z,99768.91
2024-03-01T03:58:01.703Z,99773.16
2024-03-01T04:01:08.358Z,99776.97
2024-03-01T04:04:11.352Z,99771.91
2024-03-01T04:07:14.452Z,99758.81
2024-03-01T04:10:17.304Z,99761.94
2024-03-01T04:13:20.152Z,99763.00
2024-03-01T04:16:23.231Z,99772.19
2024-03-01T04:19:26.324Z,99751.69
2024-03-01T04:22:29.464Z,99772.69
2024-03-01T04:25:33.465Z,99760.22
2024-03-01T04:28:40.555Z,99755.50
2024-03-01T04:31:49.968Z,99757.03
2024-03-01T04:34:52.702Z,99746.41
2024-03-01T04:37:55.479Z,99745.63
2024-03-01T04:40:58.283Z,99741.41
2024-03-01T04:44:01.008Z,99743.28
2024-03-01T04:47:03.913Z,99739.84
2024-03-01T04:50:07.815Z,99739.16
2024-03-01T04:53:10.938Z,99746.16
2024-03-01T04:56:13.900Z,99730.91
2024-03-01T04:59:16.994Z,99741.31
2024-03-01T05:02:20.070Z,99732.63
2024-03-01T05:05:24.272Z,99744.84
2024-03-01T05:08:29.084Z,99751.41
2024-03-01T05:11:37.192Z,99760.72
2024-03-01T05:14:42.087Z,99762.44
2024-03-01T05:17:46.489Z,99755.44
2024-03-01T05:20:49.352Z,99753.00
2024-03-01T05:23:52.754Z,99756.53
2024-03-01T05:26:55.839Z,99750.00
2024-03-01T05:29:58.927Z,99755.03
2024-03-01T05:33:02.799Z,99763.78
2024-03-01T05:36:07.242Z,99762.25
2024-03-01T05:39:19.762Z,99745.56
2024-03-01T05:42:24.593Z,99749.22
2024-03-01T05:45:28.730Z,99773.84
2024-03-01T05:48:31.824Z,99787.78
2024-03-01T05:51:34.620Z,99774.63
2024-03-01T05:54:38.396Z,99769.13
2024-03-01T05:57:42.879Z,99745.41
2024-03-01T06:00:47.022Z,99768.38
2024-03-01T06:03:50.357Z,99769.97
2024-03-01T06:06:53.502Z,99768.31
2024-03-01T06:09:56.459Z,99764.63
2024-03-01T06:13:00.860Z,99741.47
2024-03-01T06:16:04.663Z,99746.41
2024-03-01T06:19:07.528Z,99755.03
2024-03-01T06:22:10.793Z,99762.31
2024-03-01T06:25:13.760Z,99780.94
2024-03-01T06:28:18.008Z,99761.53
2024-03-01T06:31:21.335Z,99764.88
2024-03-01T06:34:24.620Z,99754.53
2024-03-01T06:37:27.721Z,99748.91
2024-03-01T06:40:35.761Z,99774.84
2024-03-01T06:43:38.827Z,99778.16
2024-03-01T06:46:41.951Z,99764.53
2024-03-01T06:49:45.113Z,99761.72
2024-03-01T06:52:48.384Z,99778.72
2024-03-01T06:55:51.644Z,99769.25
2024-03-01T06:58:55.027Z,99764.31
2024-03-01T07:01:58.305Z,99768.53
2024-03-01T07:05:01.925Z,99765.00
2024-03-01T07:08:05.295Z,99757.88
2024-03-01T07:11:09.954Z,99749.25
2024-03-01T07:14:13.941Z,99740.94
2024-03-01T07:17:16.828Z,99747.91
2024-03-01T07:20:19.888Z,99766.56
2024-03-01T07:23:22.826Z,99748.59
2024-03-01T07:26:25.987Z,99754.38
2024-03-01T07:29:30.218Z,99767.69
2024-03-01T07:32:37.172Z,99766.59
2024-03-01T07:35:40.790Z,99755.25
2024-03-01T07:38:46.460Z,99753.47
2024-03-01T07:41:51.455Z,99745.75
2024-03-01T07:44:57.037Z,99751.47
2024-03-01T07:48:00.619Z,99747.38
2024-03-01T07:51:04.844Z,99745.41
2024-03-01T07:54:10.465Z,99742.19
2024-03-01T07:57:13.407Z,99747.63
2024-03-01T08:00:16.573Z,99729.91
2024-03-01T08:03:19.773Z,99737.78
2024-03-01T08:06:23.132Z,99732.00
2024-03-01T08:09:33.922Z,99726.75
2024-03-01T08:12:36.970Z,99731.06
2024-03-01T08:15:42.055Z,99719.19
2024-03-01T08:18:45.101Z,99730.31
2024-03-01T08:21:49.133Z,99730.91
2024-03-01T08:24:56.424Z,99732.00
2024-03-01T08:27:59.518Z,99724.25
2024-03-01T08:36:00.188Z,99721.66
2024-03-01T08:44:56.509Z,99739.69
2024-03-01T08:48:12.852Z,99726.38
2024-03-01T08:51:19.017Z,99723.94
2024-03-01T08:59:42.326Z,99719.28
2024-03-01T09:02:48.104Z,99716.78
2024-03-01T09:05:56.971Z,99715.41
2024-03-01T09:09:01.618Z,99715.94
2024-03-01T09:12:09.186Z,99703.75
2024-03-01T09:15:22.962Z,99703.13
2024-03-01T09:18:45.919Z,99701.03
2024-03-01T09:21:49.799Z,99709.34
2024-03-01T09:24:53.200Z,99704.66
2024-03-01T09:27:57.966Z,99713.16
2024-03-01T09:31:00.969Z,99710.22
2024-03-01T09:34:08.384Z,99699.13
2024-03-01T09:37:15.592Z,99708.72
2024-03-01T09:40:39.441Z,99700.00
2024-03-01T09:43:49.626Z,99708.16
2024-03-01T09:47:25.814Z,99704.38
2024-03-01T09:50:59.705Z,99696.56
2024-03-01T09:54:18.260Z,99697.75
2024-03-01T09:57:58.255Z,99684.75
2024-03-01T10:01:13.329Z,99680.22
2024-03-01T10:04:45.742Z,99674.59
2024-03-01T10:07:54.485Z,99676.09
2024-03-01T10:11:16.525Z,99678.91
2024-03-01T10:14:25.324Z,99662.44
2024-03-01T10:17:41.374Z,99661.09
2024-03-01T10:21:21.465Z,99655.19
2024-03-01T10:24:53.308Z,99653.53
2024-03-01T10:28:19.869Z,99650.97
2024-03-01T10:31:57.474Z,99650.19
2024-03-01T10:35:17.342Z,99650.63
2024-03-01T10:38:30.868Z,99649.34
2024-03-01T10:42:05.253Z,99645.31
2024-03-01T10:45:19.585Z,99632.88
2024-03-01T10:48:28.135Z,99635.41
2024-03-01T10:51:34.021Z,99639.59
2024-03-01T10:54:37.250Z,99634.75
2024-03-01T10:57:55.119Z,99628.41
2024-03-01T11:01:35.973Z,99617.94
2024-03-01T11:04:45.440Z,99619.56
2024-03-01T11:07:57.729Z,99624.13
2024-03-01T11:11:03.774Z,99612.78
2024-03-01T11:14:11.344Z,99613.50
2024-03-01T11:17:16.411Z,99618.72
2024-03-01T11:20:43.111Z,99618.84
2024-03-01T11:23:58.328Z,99610.00
2024-03-01T11:27:05.601Z,99611.94
2024-03-01T11:30:13.102Z,99610.03
2024-03-01T11:33:20.737Z,99613.25
2024-03-01T11:36:48.140Z,99615.72
2024-03-01T11:39:55.591Z,99616.66
2024-03-01T11:43:14.841Z,99618.81
2024-03-01T11:47:08.075Z,99605.13
2024-03-01T11:50:32.227Z,99601.13
2024-03-01T11:53:57.801Z,99601.09
2024-03-01T11:57:30.905Z,99596.41
2024-03-01T12:00:49.089Z,99602.47
2024-03-01T12:04:04.461Z,99601.03
2024-03-01T12:07:20.547Z,99608.81
2024-03-01T12:10:28.087Z,99613.13
2024-03-01T12:13:35.778Z,99601.78
2024-03-01T12:17:08.316Z,99599.19
2024-03-01T12:20:15.782Z,99597.66
2024-03-01T12:23:42.758Z,99600.56
2024-03-01T12:27:20.900Z,99602.25
2024-03-01T12:30:33.107Z,99597.56
2024-03-01T12:34:13.472Z,99612.91
2024-03-01T12:37:28.690Z,99608.81
2024-03-01T12:40:38.906Z,99602.41
2024-03-01T12:43:48.183Z,99609.25
2024-03-01T12:47:12.182Z,99622.44
2024-03-01T12:50:31.812Z,99605.72
2024-03-01T12:53:53.212Z,99601.31
2024-03-01T12:57:15.740Z,99602.31
2024-03-01T13:00:26.868Z,99612.94
2024-03-01T13:03:51.064Z,99612.66
2024-03-01T13:06:54.921Z,99622.06
2024-03-01T13:10:01.429Z,99616.88
2024-03-01T13:13:16.109Z,99602.88
2024-03-01T13:16:20.333Z,99599.22
2024-03-01T13:19:32.163Z,99597.78
2024-03-01T13:22:43.291Z,99602.78
2024-03-01T13:26:04.270Z,99608.91
2024-03-01T13:29:17.065Z,99610.63
2024-03-01T13:32:36.130Z,99595.50
2024-03-01T13:35:43.837Z,99595.03
2024-03-01T13:39:11.930Z,99590.09
2024-03-01T13:42:35.723Z,99588.72
2024-03-01T13:45:44.037Z,99589.94
2024-03-01T13:48:51.201Z,99592.38
2024-03-01T13:51:56.045Z,99576.47
2024-03-01T13:54:59.404Z,99578.19
2024-03-01T13:58:02.452Z,99580.91
2024-03-01T14:01:07.279Z,99593.97
2024-03-01T14:04:10.390Z,99585.94
2024-03-01T14:07:17.511Z,99587.88
2024-03-01T14:10:23.088Z,99583.47
2024-03-01T14:13:27.334Z,99575.44
2024-03-01T14:16:33.977Z,99577.41
2024-03-01T14:19:37.214Z,99579.50
2024-03-01T14:22:43.999Z,99579.38
2024-03-01T14:25:47.977Z,99578.94
2024-03-01T14:28:51.098Z,99582.84
2024-03-01T14:32:05.022Z,99580.56
2024-03-01T14:35:25.628Z,99577.50
2024-03-01T14:38:28.863Z,99571.75
2024-03-01T14:41:41.595Z,99578.41
2024-03-01T14:44:45.436Z,99580.56
2024-03-01T14:47:58.938Z,99576.66
2024-03-01T14:51:06.185Z,99583.00
2024-03-01T14:54:26.074Z,99589.69
2024-03-01T14:57:29.163Z,99581.94
2024-03-01T15:00:33.708Z,99589.22
2024-03-01T15:03:37.699Z,99587.88
2024-03-01T15:06:40.761Z,99591.38
2024-03-01T15:09:45.376Z,99589.56
2024-03-01T15:12:59.535Z,99598.78
2024-03-01T15:16:06.931Z,99590.13
2024-03-01T15:19:19.622Z,99590.47
2024-03-01T15:22:24.021Z,99596.97
2024-03-01T15:25:26.924Z,99593.97
2024-03-01T15:28:30.158Z,99606.97
2024-03-01T15:31:32.936Z,99601.69
2024-03-01T15:34:36.169Z,99608.00
2024-03-01T15:37:40.306Z,99612.69
2024-03-01T15:40:45.779Z,99605.84
2024-03-01T15:43:50.781Z,99603.72
2024-03-01T15:46:53.820Z,99611.72
2024-03-01T15:49:56.917Z,99609.88
2024-03-01T15:53:01.026Z,99614.28
2024-03-01T15:56:08.814Z,99618.34
2024-03-01T15:59:11.691Z,99614.25
2024-03-01T16:02:24.255Z,99616.97
2024-03-01T16:05:27.447Z,99617.25
2024-03-01T16:08:30.332Z,99618.88
2024-03-01T16:11:33.166Z,99620.44
2024-03-01T16:14:38.166Z,99609.19
2024-03-01T16:17:41.884Z,99633.88
2024-03-01T16:20:45.051Z,99623.69
2024-03-01T16:23:51.925Z,99628.81
2024-03-01T16:26:55.448Z,99635.78
2024-03-01T16:30:00.951Z,99632.75
2024-03-01T16:33:04.573Z,99637.91
2024-03-01T16:36:10.317Z,99633.66
2024-03-01T16:39:35.448Z,99632.97
2024-03-01T16:42:46.748Z,99637.03
2024-03-01T16:45:49.864Z,99637.03
2024-03-01T16:48:56.297Z,99636.69
2024-03-01T16:51:59.602Z,99633.31
2024-03-01T16:55:04.888Z,99640.72
2024-03-01T16:58:11.558Z,99644.34
2024-03-01T17:01:34.449Z,99645.22
2024-03-01T17:04:38.011Z,99645.66
2024-03-01T17:07:48.854Z,99644.41
2024-03-01T17:10:52.169Z,99644.47
2024-03-01T17:13:58.467Z,99640.78
2024-03-01T17:17:01.547Z,99650.28
2024-03-01T17:20:08.387Z,99648.97
2024-03-01T17:23:11.685Z,99651.19
2024-03-01T17:26:14.801Z,99661.56
2024-03-01T17:29:18.002Z,99659.06
2024-03-01T17:32:21.215Z,99659.94
2024-03-01T17:35:24.353Z,99667.13
2024-03-01T17:38:27.479Z,99673.06
2024-03-01T17:41:30.629Z,99677.19
2024-03-01T17:44:33.752Z,99670.09
2024-03-01T17:47:36.758Z,99675.41
2024-03-01T17:50:39.836Z,99677.47
2024-03-01T17:53:42.868Z,99672.78
2024-03-01T17:56:46.360Z,99674.63
2024-03-01T17:59:49.405Z,99674.28
2024-03-01T18:02:52.555Z,99682.00
2024-03-01T18:06:00.888Z,99683.41
2024-03-01T18:09:03.738Z,99686.22
2024-03-01T18:12:06.936Z,99687.72
2024-03-01T18:15:09.900Z,99683.25
2024-03-01T18:18:14.310Z,99696.84
2024-03-01T18:21:17.297Z,99690.06
2024-03-01T18:24:20.467Z,99681.91
2024-03-01T18:27:23.279Z,99681.00
2024-03-01T18:30:26.055Z,99684.75
2024-03-01T18:33:29.416Z,99687.47
2024-03-01T18:36:32.499Z,99687.75
2024-03-01T18:39:35.553Z,99689.03
2024-03-01T18:42:38.701Z,99688.97
2024-03-01T18:45:41.548Z,99684.81
2024-03-01T18:48:47.763Z,99679.22
2024-03-01T18:51:50.957Z,99682.28
2024-03-01T18:54:54.307Z,99685.47
2024-03-01T18:57:57.373Z,99682.72
2024-03-01T19:01:10.293Z,99681.84
2024-03-01T19:04:18.194Z,99689.78
2024-03-01T19:07:21.677Z,99689.13
2024-03-01T19:10:26.518Z,99687.50
2024-03-01T19:13:31.329Z,99683.25
2024-03-01T19:16:34.842Z,99681.66
2024-03-01T19:19:38.472Z,99686.75
2024-03-01T19:22:41.469Z,99695.47
2024-03-01T19:25:47.187Z,99699.38
2024-03-01T19:28:50.479Z,99698.69
2024-03-01T19:31:55.410Z,99698.16
2024-03-01T19:34:58.328Z,99694.84
2024-03-01T19:38:01.248Z,99698.72
2024-03-01T19:41:04.424Z,99699.84
2024-03-01T19:44:07.615Z,99703.81
2024-03-01T19:47:11.953Z,99702.38
2024-03-01T19:50:14.966Z,99707.38
2024-03-01T19:53:18.202Z,99716.44
2024-03-01T19:56:21.268Z,99710.59
2024-03-01T19:59:26.597Z,99714.56
2024-03-01T20:02:29.634Z,99714.47
2024-03-01T20:05:32.504Z,99716.34
2024-03-01T20:08:35.237Z,99721.72
2024-03-01T20:11:38.084Z,99722.56
2024-03-01T20:14:40.992Z,99724.50
2024-03-01T20:17:44.201Z,99726.88
2024-03-01T20:20:47.261Z,99721.44
2024-03-01T20:23:50.969Z,99719.16
2024-03-01T20:26:53.741Z,99718.75
2024-03-01T20:29:56.815Z,99725.75
2024-03-01T20:33:03.251Z,99729.28
2024-03-01T20:36:06.313Z,99730.41
2024-03-01T20:39:10.358Z,99727.34
2024-03-01T20:42:13.607Z,99731.53
2024-03-01T20:45:16.509Z,99726.31
2024-03-01T20:48:19.715Z,99729.78
2024-03-01T20:51:24.841Z,99721.44
2024-03-01T20:54:27.700Z,99730.59
2024-03-01T20:57:33.724Z,99724.84
2024-03-01T21:00:36.553Z,99720.88
2024-03-01T21:03:39.574Z,99710.88
2024-03-01T21:06:42.487Z,99716.06
2024-03-01T21:09:45.265Z,99709.09
2024-03-01T21:12:49.067Z,99712.31
2024-03-01T21:15:52.587Z,99713.97
2024-03-01T21:18:55.469Z,99725.56
2024-03-01T21:25:06.980Z,99722.28
2024-03-01T21:28:09.770Z,99715.75
2024-03-01T21:31:13.659Z,99720.38
2024-03-01T21:34:18.380Z,99715.75
2024-03-01T21:37:21.425Z,99717.34
2024-03-01T21:40:28.030Z,99720.16
2024-03-01T21:43:30.838Z,99721.28
2024-03-01T21:46:33.737Z,99715.38
2024-03-01T21:49:37.296Z,99727.34
2024-03-01T21:52:40.998Z,99724.28
2024-03-01T21:55:44.105Z,99721.63
2024-03-01T21:58:48.046Z,99735.13
2024-03-01T22:01:50.894Z,99729.41
2024-03-01T22:04:59.480Z,99730.47
2024-03-01T22:08:10.500Z,99730.66
2024-03-01T22:11:17.137Z,99720.97
2024-03-01T22:14:21.033Z,99722.59
2024-03-01T22:17:25.687Z,99724.22
2024-03-01T22:20:28.531Z,99725.34
2024-03-01T22:23:31.431Z,99722.53
2024-03-01T22:26:35.807Z,99718.59
2024-03-01T22:29:38.991Z,99720.56
2024-03-01T22:32:43.019Z,99721.13
2024-03-01T22:35:47.133Z,99715.22
2024-03-01T22:38:50.180Z,99709.88
2024-03-01T22:41:52.982Z,99708.41
2024-03-01T22:44:56.185Z,99716.53
2024-03-01T22:47:59.252Z,99713.09
2024-03-01T22:51:04.111Z,99707.94
2024-03-01T22:54:10.382Z,99709.91
2024-03-01T22:57:15.483Z,99715.88
2024-03-01T23:00:24.042Z,99709.28
2024-03-01T23:03:42.098Z,99697.78
2024-03-01T23:06:45.462Z,99696.94
2024-03-01T23:09:48.819Z,99703.19
2024-03-01T23:12:52.466Z,99697.78
2024-03-01T23:15:55.640Z,99700.88
2024-03-01T23:18:58.751Z,99705.19
2024-03-01T23:22:02.173Z,99702.91
2024-03-01T23:25:05.496Z,99704.28
2024-03-01T23:28:10.724Z,99704.47
2024-03-01T23:31:13.581Z,99703.41
2024-03-01T23:34:17.297Z,99700.41
2024-03-01T23:37:20.526Z,99703.44
2024-03-01T23:40:25.299Z,99708.16
2024-03-01T23:43:32.344Z,99711.31
2024-03-01T23:46:35.131Z,99708.63
2024-03-01T23:49:38.850Z,99702.09
2024-03-01T23:52:42.203Z,99698.31
2024-03-01T23:55:47.157Z,99695.31
2024-03-01T23:58:50.548Z,99699.25
